Lovewrecked, Dominican Republic

07:59 AM AST on Juni 25, 2017 (GMT -0400)
Costambar | | Change Station

Elev 43 ft 19.81 °N, 70.71 °W | Updated 12 seconds ago

Mestadels molnigt
Mestadels molnigt
79.7 °F
Feels Like 85 °F
N
0.0
Vind Växlande Vind from SV
Gusts 0.0 miles/tim

Idag
High -- | Low -- °F
--% Chance of Precip.
Yesterday
High -- | Low -- °F
Precip. -- tum
Lufttryck 30.01 tum
Sikt 6.2 miles
Molnigt Few 1600 ft
Mestadels molnigt 1800 ft
Mestadels molnigt 7000 ft
Värmeindex 85 °F
Daggpunkt 78 °F
Luftfuktighet 94%
Rainfall 0.00 tum
Snow Depth Not available.
6:05 AM 7:25 PM
Första kvarteret, 3% visible
METAR MDPP 251100Z 00000KT 9999 FEW016CB BKN018 BKN070 23/22 Q1016 CB/SE/S
Lufttryck 30.01 tum
Sikt 6.2 miles
Molnigt Few 1600 ft
Mestadels molnigt 1800 ft
Mestadels molnigt 7000 ft
Värmeindex 85 °F
Daggpunkt 78 °F
Luftfuktighet 94%
Rainfall 0.00 tum
Snow Depth Not available.
6:05 AM 7:25 PM
Första kvarteret, 3% visible
METAR MDPP 251100Z 00000KT 9999 FEW016CB BKN018 BKN070 23/22 Q1016 CB/SE/S

Get Severe Weather Alerts

Thanks for signing up!

Be on the lookout for a verification email in your inbox.

You'll start receiving the daily forecast at 6 AM.

×

10-Day Weather Forecast

No radar image for this location.
×

Almanac

Astronomi

Jun. 25, 2017 Rise Set
Actual Time
Civil Twilight
Nautical Twilight
Astronomical Twilight
Månen
Length Of Visible Light
Dagens längd
Tomorrow will be .
, % of the Moon is Illuminated

Today's Extremes

Country Highs Country Lows

Community

WunderPhotos

Category 6

Welcome to Category 6. This is the collective home for Weather Underground's featured writeups by Dr. Jeff Masters (right), Bob Henson (left), Chris Burt, and other regular contributors.

Nearby

Air Quality

  Air Quality AQ Index Pollutant
Not available.

Snödjup

Station Depth Elevation

Earthquake Activity

Stad Distance Mag. Time & Date
Minimum magnitude displayed is 2.5.

Coastal Water Temperatures

Plats Temperatur

Stations

Nearby Weather Stations

Station Location Temp Vindavkylning Daggpunkt Luftfuktighet Vind Precip. Elev Uppdaterad Type